createdAt,value
2023-04-16T00:00:16.988Z,8.07
2023-04-16T00:02:17.013Z,7.91
2023-04-16T00:04:17.180Z,7.93
2023-04-16T00:06:16.985Z,7.68
2023-04-16T00:08:16.940Z,7.68
2023-04-16T00:10:16.954Z,7.9
2023-04-16T00:12:16.961Z,8.01
2023-04-16T00:14:37.507Z,8.08
2023-04-16T00:16:37.521Z,8.06
2023-04-16T00:18:37.612Z,8.03
2023-04-16T00:20:37.633Z,8.03
2023-04-16T00:22:37.589Z,8.06
2023-04-16T00:24:37.487Z,8.06
2023-04-16T00:26:37.594Z,8
2023-04-16T00:28:37.503Z,8.05
2023-04-16T00:30:11.469Z,8.03
2023-04-16T00:32:11.522Z,8.01
2023-04-16T00:34:11.524Z,8
2023-04-16T00:36:11.507Z,7.95
2023-04-16T00:38:11.484Z,7.95
2023-04-16T00:40:11.523Z,7.84
2023-04-16T00:42:11.479Z,7.86
2023-04-16T00:45:32.830Z,7.98
2023-04-16T00:47:32.816Z,7.93
2023-04-16T00:49:32.803Z,7.96
2023-04-16T00:51:32.856Z,8.02
2023-04-16T00:53:32.782Z,7.94
2023-04-16T00:55:32.771Z,7.91
2023-04-16T00:57:32.826Z,7.92
2023-04-16T01:00:43.524Z,7.83
2023-04-16T01:02:43.653Z,7.77
2023-04-16T01:04:43.643Z,7.78
2023-04-16T01:06:43.594Z,7.77
2023-04-16T01:08:43.581Z,7.69
2023-04-16T01:10:43.602Z,7.58
2023-04-16T01:12:43.541Z,7.55
2023-04-16T01:15:10.990Z,7.42
2023-04-16T01:17:11.038Z,7.48
2023-04-16T01:19:11.166Z,7.44
2023-04-16T01:21:11.003Z,7.38
2023-04-16T01:23:11.028Z,7.39
2023-04-16T01:25:11.019Z,7.36
2023-04-16T01:27:11.003Z,7.34
2023-04-16T01:29:11.171Z,7.31
2023-04-16T01:31:13.455Z,7.25
2023-04-16T01:33:13.421Z,7.17
2023-04-16T01:35:13.429Z,7.16
2023-04-16T01:37:13.417Z,7.14
2023-04-16T01:39:13.490Z,7.03
2023-04-16T01:41:13.506Z,7.12
2023-04-16T01:43:13.421Z,7.07
2023-04-16T01:45:42.360Z,7.09
2023-04-16T01:47:42.438Z,7.08
2023-04-16T01:49:42.376Z,7.05
2023-04-16T01:51:42.358Z,7.05
2023-04-16T01:53:42.383Z,7.01
2023-04-16T01:55:42.403Z,6.98
2023-04-16T01:57:42.481Z,6.92
2023-04-16T02:01:20.837Z,6.88
2023-04-16T02:03:20.898Z,6.95
2023-04-16T02:05:20.779Z,6.97
2023-04-16T02:07:20.752Z,6.97
2023-04-16T02:09:20.740Z,6.98
2023-04-16T02:11:20.812Z,6.95
2023-04-16T02:13:20.751Z,6.93
2023-04-16T02:16:00.378Z,6.73
2023-04-16T02:18:00.454Z,6.28
2023-04-16T02:20:00.480Z,6.41
2023-04-16T02:22:00.374Z,6.55
2023-04-16T02:24:00.327Z,6.67
2023-04-16T02:26:00.381Z,6.85
2023-04-16T02:28:00.377Z,6.91
2023-04-16T02:31:40.045Z,6.94
2023-04-16T02:33:39.938Z,6.69
2023-04-16T02:35:39.981Z,6.64
2023-04-16T02:37:39.928Z,6.76
2023-04-16T02:39:40.030Z,6.78
2023-04-16T02:41:39.976Z,6.66
2023-04-16T02:43:39.984Z,6.55
2023-04-16T02:46:58.022Z,6.51
2023-04-16T02:48:58.051Z,6.23
2023-04-16T02:50:58.011Z,6.42
2023-04-16T02:52:57.994Z,6.58
2023-04-16T02:54:58.159Z,6.6
2023-04-16T02:56:58.013Z,6.68
2023-04-16T02:58:58.082Z,6.67
2023-04-16T03:02:06.501Z,6.79
2023-04-16T03:04:06.428Z,6.77
2023-04-16T03:06:06.451Z,6.74
2023-04-16T03:08:06.368Z,6.8
2023-04-16T03:10:06.452Z,6.84
2023-04-16T03:12:06.368Z,6.85
2023-04-16T03:14:06.460Z,6.83
2023-04-16T03:16:56.263Z,6.83
2023-04-16T03:18:56.225Z,6.83
2023-04-16T03:20:56.629Z,6.78
2023-04-16T03:22:56.253Z,6.81
2023-04-16T03:24:56.345Z,6.81
2023-04-16T03:26:56.243Z,6.79
2023-04-16T03:28:56.267Z,6.83
2023-04-16T03:32:14.283Z,6.74
2023-04-16T03:34:14.027Z,6.73
2023-04-16T03:36:14.089Z,6.75
2023-04-16T03:38:14.038Z,6.83
2023-04-16T03:40:14.102Z,6.87
2023-04-16T03:42:14.022Z,6.92
2023-04-16T03:44:14.051Z,6.94
2023-04-16T03:47:45.625Z,6.95
2023-04-16T03:49:45.589Z,6.95
2023-04-16T03:51:45.526Z,6.97
2023-04-16T03:53:45.789Z,6.98
2023-04-16T03:55:45.876Z,7.05
2023-04-16T03:57:45.516Z,7.06
2023-04-16T03:59:45.814Z,7.12
2023-04-16T04:02:34.891Z,7.17
2023-04-16T04:04:35.075Z,7.15
2023-04-16T04:06:34.854Z,7.21
2023-04-16T04:08:34.934Z,7.11
2023-04-16T04:10:34.876Z,7.17
2023-04-16T04:12:34.812Z,7.29
2023-04-16T04:14:34.807Z,7.3
2023-04-16T04:17:37.597Z,6.95
2023-04-16T04:19:38.918Z,6.75
2023-04-16T04:21:37.652Z,6.83
2023-04-16T04:23:37.876Z,6.62
2023-04-16T04:25:37.670Z,6.62
2023-04-16T04:27:37.872Z,6.76
2023-04-16T04:29:37.557Z,6.71
2023-04-16T04:33:11.175Z,6.57
2023-04-16T04:35:11.147Z,6.38
2023-04-16T04:37:11.233Z,6.56
2023-04-16T04:39:11.297Z,6.85
2023-04-16T04:41:11.154Z,7.1
2023-04-16T04:43:11.109Z,7.06
2023-04-16T04:45:11.115Z,6.97
2023-04-16T04:47:55.406Z,7.13
2023-04-16T04:49:55.448Z,7.38
2023-04-16T04:51:55.425Z,7.46
2023-04-16T04:53:55.466Z,7.37
2023-04-16T04:55:57.450Z,7.19
2023-04-16T04:57:55.408Z,7.26
2023-04-16T04:59:55.383Z,7.17
2023-04-16T05:03:20.051Z,7.06
2023-04-16T05:05:20.069Z,7.1
2023-04-16T05:07:19.995Z,7.29
2023-04-16T05:09:20.035Z,7.04
2023-04-16T05:11:19.996Z,6.91
2023-04-16T05:13:20.002Z,6.92
2023-04-16T05:15:19.968Z,7.15
2023-04-16T05:18:32.059Z,7.38
2023-04-16T05:20:32.026Z,7.39
2023-04-16T05:22:32.021Z,7.29
2023-04-16T05:24:32.058Z,7.11
2023-04-16T05:26:32.031Z,7.21
2023-04-16T05:28:32.015Z,7.37
2023-04-16T05:30:31.987Z,7.63
2023-04-16T05:33:01.898Z,7.94
2023-04-16T05:35:01.797Z,8.04
2023-04-16T05:37:01.774Z,8.1
2023-04-16T05:39:01.909Z,7.79
2023-04-16T05:41:01.861Z,7.93
2023-04-16T05:43:01.706Z,7.86
2023-04-16T05:45:01.782Z,7.55
2023-04-16T05:47:01.679Z,7.81
2023-04-16T05:48:45.946Z,7.88
2023-04-16T05:50:46.615Z,7.88
2023-04-16T05:52:45.839Z,8.05
2023-04-16T05:54:45.850Z,8.2
2023-04-16T05:56:45.933Z,8.19
2023-04-16T05:58:45.856Z,8.45
2023-04-16T06:00:46.271Z,8.37
2023-04-16T06:03:31.667Z,8.43
2023-04-16T06:05:32.031Z,8.5
2023-04-16T06:07:31.450Z,8.38
2023-04-16T06:09:31.470Z,8.28
2023-04-16T06:11:31.526Z,8.57
2023-04-16T06:13:31.432Z,8.56
2023-04-16T06:15:31.440Z,8.75
2023-04-16T06:19:01.738Z,8.99
2023-04-16T06:21:01.655Z,9.07
2023-04-16T06:23:01.652Z,9.34
2023-04-16T06:25:01.683Z,9.46
2023-04-16T06:27:01.777Z,9.38
2023-04-16T06:29:01.657Z,8.83
2023-04-16T06:31:01.820Z,9.32
2023-04-16T06:34:01.645Z,8.97
2023-04-16T06:36:01.562Z,9.48
2023-04-16T06:38:01.635Z,9.69
2023-04-16T06:40:01.574Z,9.77
2023-04-16T06:42:01.546Z,9.97
2023-04-16T06:44:01.611Z,9.76
2023-04-16T06:46:01.615Z,10.42
2023-04-16T06:49:09.094Z,11.06
2023-04-16T06:51:08.800Z,11.04
2023-04-16T06:53:08.684Z,11.94
2023-04-16T06:55:08.885Z,11.57
2023-04-16T06:57:08.984Z,11.67
2023-04-16T06:59:09.026Z,11.61
2023-04-16T07:01:08.906Z,11.64
2023-04-16T07:04:38.258Z,12.53
2023-04-16T07:06:38.275Z,12.9
2023-04-16T07:08:38.243Z,12.96
2023-04-16T07:10:38.205Z,12.47
2023-04-16T07:12:38.279Z,13.17
2023-04-16T07:14:38.254Z,13.47
2023-04-16T07:16:38.338Z,13
2023-04-16T07:19:24.556Z,12.96
2023-04-16T07:21:24.469Z,12.33
2023-04-16T07:23:24.420Z,13.02
2023-04-16T07:25:24.207Z,13.35
2023-04-16T07:27:24.203Z,13.16
2023-04-16T07:29:24.326Z,12.56
2023-04-16T07:31:24.803Z,12.45
2023-04-16T07:34:56.674Z,12.75
2023-04-16T07:36:56.953Z,12.6
2023-04-16T07:38:56.660Z,12.55
2023-04-16T07:40:56.653Z,12.14
2023-04-16T07:42:56.704Z,12.32
2023-04-16T07:44:56.649Z,12.71
2023-04-16T07:46:56.717Z,12.76
2023-04-16T07:49:55.156Z,13
2023-04-16T07:51:55.065Z,12.78
2023-04-16T07:53:55.095Z,12.9
2023-04-16T07:55:55.087Z,12.96
2023-04-16T07:57:55.233Z,13.23
2023-04-16T07:59:55.052Z,13.74
2023-04-16T08:01:55.150Z,14
2023-04-16T08:05:04.393Z,14.46
2023-04-16T08:07:04.319Z,15.23
2023-04-16T08:09:04.336Z,15.09
2023-04-16T08:11:04.306Z,14.27
2023-04-16T08:13:04.343Z,14.54
2023-04-16T08:15:04.286Z,14.28
2023-04-16T08:17:04.282Z,14.93
2023-04-16T08:20:44.940Z,15.66
2023-04-16T08:22:44.843Z,15.44
2023-04-16T08:24:44.852Z,14.95
2023-04-16T08:26:44.909Z,15
2023-04-16T08:28:44.877Z,14.92
2023-04-16T08:30:45.453Z,15.05
2023-04-16T08:32:45.023Z,14.53
2023-04-16T08:35:40.161Z,15.11
2023-04-16T08:37:40.124Z,15.44
2023-04-16T08:39:40.206Z,14.9
2023-04-16T08:41:40.126Z,15.51
2023-04-16T08:43:40.089Z,16.25
2023-04-16T08:45:40.217Z,16.87
2023-04-16T08:47:40.125Z,17.23
2023-04-16T08:50:20.145Z,17.3
2023-04-16T08:52:20.087Z,16.62
2023-04-16T08:54:20.115Z,16.84
2023-04-16T08:56:20.272Z,17.6
2023-04-16T08:58:20.148Z,18.28
2023-04-16T09:00:20.303Z,17.51
2023-04-16T09:02:20.151Z,16.87
2023-04-16T09:06:10.613Z,16.58
2023-04-16T09:08:10.587Z,16.47
2023-04-16T09:10:10.660Z,17.01
2023-04-16T09:12:10.628Z,17.36
2023-04-16T09:14:10.578Z,17.52
2023-04-16T09:16:10.616Z,17.92
2023-04-16T09:18:10.654Z,18
2023-04-16T09:20:45.832Z,18.01
2023-04-16T09:22:45.865Z,18.08
2023-04-16T09:24:45.849Z,18.13
2023-04-16T09:26:45.865Z,17.27
2023-04-16T09:28:45.842Z,17.27
2023-04-16T09:30:45.912Z,17.48
2023-04-16T09:32:45.892Z,17.67
2023-04-16T09:35:55.013Z,18.28
2023-04-16T09:37:54.692Z,18.51
2023-04-16T09:39:54.732Z,18.37
2023-04-16T09:41:54.751Z,18.03
2023-04-16T09:43:54.833Z,18.3
2023-04-16T09:45:54.748Z,18.9
2023-04-16T09:47:54.722Z,19.23
2023-04-16T09:50:56.858Z,19.85
2023-04-16T09:52:56.812Z,20.17
2023-04-16T09:54:56.819Z,20.46
2023-04-16T09:56:56.888Z,19.75
2023-04-16T09:58:56.842Z,19.1
2023-04-16T10:00:56.965Z,19.51
2023-04-16T10:02:56.900Z,17.9
2023-04-16T10:04:56.971Z,18.42
2023-04-16T10:07:04.534Z,18.62
2023-04-16T10:09:04.463Z,19
2023-04-16T10:11:04.515Z,19.5
2023-04-16T10:13:04.384Z,20
2023-04-16T10:15:04.426Z,20.39
2023-04-16T10:17:04.550Z,20.62
2023-04-16T10:19:04.519Z,20.86
2023-04-16T10:21:50.166Z,20.64
2023-04-16T10:23:49.978Z,20.61
2023-04-16T10:25:50.066Z,20.3
2023-04-16T10:27:50.033Z,19.91
2023-04-16T10:29:50.068Z,19.8
2023-04-16T10:31:49.956Z,19.42
2023-04-16T10:33:50.004Z,19.91
2023-04-16T10:37:21.499Z,20.58
2023-04-16T10:39:21.433Z,20.15
2023-04-16T10:41:21.569Z,19.64
2023-04-16T10:43:21.466Z,19.57
2023-04-16T10:45:21.622Z,17.81
2023-04-16T10:47:21.566Z,18.7
2023-04-16T10:49:21.486Z,20.19
2023-04-16T10:52:03.205Z,19.22
2023-04-16T10:54:03.189Z,18.72
2023-04-16T10:56:03.204Z,19.77
2023-04-16T10:58:03.192Z,20.06
2023-04-16T11:00:03.207Z,21.14
2023-04-16T11:02:03.313Z,21.12
2023-04-16T11:04:03.288Z,19.1
2023-04-16T11:07:38.962Z,20.26
2023-04-16T11:09:38.946Z,19.81
2023-04-16T11:11:39.020Z,18.63
2023-04-16T11:13:38.933Z,20.19
2023-04-16T11:15:38.997Z,20.42
2023-04-16T11:17:38.960Z,19.29
2023-04-16T11:19:38.966Z,19.76
2023-04-16T11:22:41.963Z,19.22
2023-04-16T11:24:41.937Z,19.24
2023-04-16T11:26:41.934Z,19.86
2023-04-16T11:28:42.033Z,19.54
2023-04-16T11:30:44.064Z,19.48
2023-04-16T11:32:41.964Z,19.73
2023-04-16T11:34:42.010Z,20.42
2023-04-16T11:37:12.143Z,20.9
2023-04-16T11:39:12.271Z,20.76
2023-04-16T11:41:12.113Z,20.31
2023-04-16T11:43:12.158Z,20.8
2023-04-16T11:45:12.128Z,20.36
2023-04-16T11:47:12.094Z,19.02
2023-04-16T11:49:12.331Z,19.3
2023-04-16T11:51:12.118Z,21.04
2023-04-16T11:52:55.507Z,21.93
2023-04-16T11:54:55.880Z,22.18
2023-04-16T11:56:55.483Z,22.03
2023-04-16T11:58:55.497Z,19.79
2023-04-16T12:00:55.605Z,20.47
2023-04-16T12:02:55.837Z,20.16
2023-04-16T12:04:55.715Z,19.87
2023-04-16T12:08:00.250Z,19.94
2023-04-16T12:10:00.195Z,20.54
2023-04-16T12:12:00.168Z,20.73
2023-04-16T12:14:00.208Z,20.66
2023-04-16T12:16:00.150Z,20.41
2023-04-16T12:18:00.384Z,19.98
2023-04-16T12:20:00.183Z,20.21
2023-04-16T12:22:47.366Z,19.09
2023-04-16T12:24:47.355Z,19.04
2023-04-16T12:26:47.374Z,18.3
2023-04-16T12:28:47.318Z,19.07
2023-04-16T12:30:47.435Z,19.34
2023-04-16T12:32:47.360Z,19.7
2023-04-16T12:34:48.648Z,19.93
2023-04-16T12:37:50.992Z,18.11
2023-04-16T12:39:50.802Z,19.25
2023-04-16T12:41:50.805Z,18.78
2023-04-16T12:43:50.649Z,18.64
2023-04-16T12:45:50.806Z,19.16
2023-04-16T12:47:50.899Z,19.46
2023-04-16T12:49:50.637Z,19.56
2023-04-16T12:51:50.652Z,19.65
2023-04-16T12:53:35.544Z,19.8
2023-04-16T12:55:35.584Z,20.06
2023-04-16T12:57:36.036Z,19.8
2023-04-16T12:59:35.571Z,19.2
2023-04-16T13:01:35.657Z,19.56
2023-04-16T13:03:35.596Z,19.73
2023-04-16T13:05:35.522Z,20.01
2023-04-16T13:08:20.117Z,20.16
2023-04-16T13:10:20.091Z,20.31
2023-04-16T13:12:20.009Z,20.36
2023-04-16T13:14:20.003Z,20.33
2023-04-16T13:16:20.308Z,20.34
2023-04-16T13:18:20.132Z,20.4
2023-04-16T13:20:20.751Z,20.42
2023-04-16T13:23:53.888Z,20.43
2023-04-16T13:25:53.908Z,20.42
2023-04-16T13:27:53.854Z,20.39
2023-04-16T13:29:53.912Z,20.43
2023-04-16T13:31:53.859Z,20.35
2023-04-16T13:33:53.865Z,19.72
2023-04-16T13:35:53.889Z,19.69
2023-04-16T13:39:01.049Z,20.22
2023-04-16T13:41:01.176Z,19.91
2023-04-16T13:43:00.989Z,19.5
2023-04-16T13:45:00.947Z,18.16
2023-04-16T13:47:01.063Z,17.8
2023-04-16T13:49:00.973Z,18.66
2023-04-16T13:51:00.947Z,18.58
2023-04-16T13:53:53.109Z,19.16
2023-04-16T13:55:53.009Z,18.02
2023-04-16T13:57:53.069Z,17.77
2023-04-16T13:59:53.015Z,17.41
2023-04-16T14:01:53.072Z,17.54
2023-04-16T14:03:53.324Z,17.32
2023-04-16T14:05:52.998Z,17.44
2023-04-16T14:09:20.169Z,17.9
2023-04-16T14:11:20.123Z,17.79
2023-04-16T14:13:20.149Z,18.27
2023-04-16T14:15:20.187Z,18.24
2023-04-16T14:17:20.294Z,18.57
2023-04-16T14:19:20.254Z,18.84
2023-04-16T14:21:20.131Z,18.12
2023-04-16T14:24:15.798Z,17.22
2023-04-16T14:26:15.758Z,17.8
2023-04-16T14:28:15.985Z,18.24
2023-04-16T14:30:15.852Z,17.76
2023-04-16T14:32:15.801Z,17.29
2023-04-16T14:34:15.745Z,17.51
2023-04-16T14:36:15.773Z,16.8
2023-04-16T14:39:49.230Z,17.5
2023-04-16T14:41:49.260Z,17.11
2023-04-16T14:43:49.221Z,16.97
2023-04-16T14:45:49.248Z,16.46
2023-04-16T14:47:49.266Z,16.4
2023-04-16T14:49:49.253Z,16.41
2023-04-16T14:51:49.193Z,17.05
2023-04-16T14:55:04.031Z,17.46
2023-04-16T14:57:03.924Z,17.62
2023-04-16T14:59:03.955Z,18.1
2023-04-16T15:01:03.966Z,18.1
2023-04-16T15:03:04.135Z,18.43
2023-04-16T15:05:04.137Z,18.36
2023-04-16T15:07:03.973Z,18.47
2023-04-16T15:09:49.235Z,18.84
2023-04-16T15:11:49.186Z,18.93
2023-04-16T15:13:49.270Z,18.18
2023-04-16T15:15:49.237Z,18.53
2023-04-16T15:17:49.357Z,18.56
2023-04-16T15:19:49.228Z,18.5
2023-04-16T15:21:49.220Z,18.45
2023-04-16T15:25:11.250Z,18.11
2023-04-16T15:27:11.961Z,17.86
2023-04-16T15:29:11.208Z,17.72
2023-04-16T15:31:11.498Z,17.57
2023-04-16T15:33:11.349Z,17.62
2023-04-16T15:35:11.535Z,17.58
2023-04-16T15:37:11.219Z,17.51
2023-04-16T15:40:41.259Z,17.66
2023-04-16T15:42:40.995Z,17.66
2023-04-16T15:44:41.111Z,17.45
2023-04-16T15:46:41.111Z,17.34
2023-04-16T15:48:41.148Z,17.42
2023-04-16T15:50:41.040Z,17.33
2023-04-16T15:52:41.132Z,17.2
2023-04-16T15:54:57.256Z,17.14
2023-04-16T15:56:57.376Z,17.12
2023-04-16T15:58:57.605Z,16.98
2023-04-16T16:00:57.574Z,16.88
2023-04-16T16:02:57.347Z,16.68
2023-04-16T16:04:57.520Z,16.45
2023-04-16T16:06:57.360Z,16.49
2023-04-16T16:08:57.305Z,16.35
2023-04-16T16:10:41.827Z,16.26
2023-04-16T16:12:41.884Z,16.14
2023-04-16T16:14:41.810Z,16.15
2023-04-16T16:16:41.897Z,16.22
2023-04-16T16:18:41.863Z,15.94
2023-04-16T16:20:41.830Z,16.02
2023-04-16T16:22:41.825Z,16.06
2023-04-16T16:25:20.772Z,15.95
2023-04-16T16:27:20.829Z,15.99
2023-04-16T16:29:20.751Z,15.92
2023-04-16T16:31:21.003Z,15.89
2023-04-16T16:33:20.858Z,15.73
2023-04-16T16:35:21.079Z,15.65
2023-04-16T16:37:20.827Z,15.64
2023-04-16T16:39:20.796Z,15.69
2023-04-16T16:40:52.509Z,15.69
2023-04-16T16:42:52.540Z,15.54
2023-04-16T16:44:53.432Z,15.43
2023-04-16T16:46:52.613Z,15.33
2023-04-16T16:48:52.727Z,15.38
2023-04-16T16:50:52.534Z,15.33
2023-04-16T16:52:52.548Z,15.36
2023-04-16T16:56:21.374Z,15.27
2023-04-16T16:58:21.268Z,15.23
2023-04-16T17:00:21.295Z,15.17
2023-04-16T17:02:21.664Z,15.22
2023-04-16T17:04:21.532Z,15.25
2023-04-16T17:06:21.436Z,15.2
2023-04-16T17:08:21.526Z,15.14
2023-04-16T17:11:01.017Z,15.11
2023-04-16T17:13:01.349Z,15.08
2023-04-16T17:15:01.103Z,15.07
2023-04-16T17:17:01.043Z,15
2023-04-16T17:19:01.078Z,15.07
2023-04-16T17:21:01.046Z,14.98
2023-04-16T17:23:01.014Z,14.95
2023-04-16T17:26:42.606Z,14.87
2023-04-16T17:28:39.509Z,14.75
2023-04-16T17:30:39.555Z,14.79
2023-04-16T17:32:39.460Z,14.73
2023-04-16T17:34:39.454Z,14.84
2023-04-16T17:36:39.488Z,14.93
2023-04-16T17:38:39.484Z,14.79
2023-04-16T17:41:58.719Z,14.73
2023-04-16T17:43:58.848Z,13.69
2023-04-16T17:45:58.792Z,13.83
2023-04-16T17:47:58.694Z,14.11
2023-04-16T17:49:58.753Z,14.1
2023-04-16T17:51:59.041Z,14.53
2023-04-16T17:53:58.839Z,14.72
2023-04-16T17:56:21.336Z,14.74
2023-04-16T17:58:21.233Z,14.72
2023-04-16T18:00:21.303Z,14.75
2023-04-16T18:02:21.297Z,14.55
2023-04-16T18:04:21.342Z,14.69
2023-04-16T18:06:21.332Z,14.8
2023-04-16T18:08:21.241Z,14.92
2023-04-16T18:10:21.191Z,14.89
2023-04-16T18:12:02.140Z,14.86
2023-04-16T18:14:02.130Z,14.83
2023-04-16T18:16:02.088Z,14.61
2023-04-16T18:18:02.173Z,14.65
2023-04-16T18:20:02.064Z,14.61
2023-04-16T18:22:02.056Z,13.91
2023-04-16T18:24:02.119Z,14.12
2023-04-16T18:26:58.378Z,14.52
2023-04-16T18:28:58.476Z,14.52
2023-04-16T18:30:59.068Z,14.58
2023-04-16T18:34:58.358Z,14.64
2023-04-16T18:36:58.451Z,14.63
2023-04-16T18:39:01.391Z,14.59
2023-04-16T18:41:48.237Z,14.56
2023-04-16T18:43:47.882Z,14.5
2023-04-16T18:45:47.806Z,14.51
2023-04-16T18:47:48.257Z,14.48
2023-04-16T18:49:47.828Z,14.41
2023-04-16T18:51:47.886Z,14.31
2023-04-16T18:53:47.886Z,14.3
2023-04-16T18:55:47.841Z,14.27
2023-04-16T18:57:21.323Z,14.16
2023-04-16T18:59:21.665Z,14.05
2023-04-16T19:01:21.484Z,14.03
2023-04-16T19:03:21.379Z,14.02
2023-04-16T19:05:21.602Z,13.92
2023-04-16T19:07:21.344Z,14.06
2023-04-16T19:09:21.538Z,14.08
2023-04-16T19:12:35.828Z,14.11
2023-04-16T19:14:35.855Z,14.13
2023-04-16T19:16:35.872Z,14.17
2023-04-16T19:18:35.858Z,14.15
2023-04-16T19:20:35.861Z,14.08
2023-04-16T19:22:35.823Z,14.08
2023-04-16T19:24:35.807Z,13.99
2023-04-16T19:27:40.057Z,13.92
2023-04-16T19:29:40.033Z,13.87
2023-04-16T19:31:40.077Z,13.82
2023-04-16T19:33:40.085Z,13.82
2023-04-16T19:35:40.025Z,13.8
2023-04-16T19:37:40.058Z,13.72
2023-04-16T19:39:40.029Z,13.73
2023-04-16T19:43:06.781Z,13.69
2023-04-16T19:45:06.777Z,13.68
2023-04-16T19:47:06.817Z,13.62
2023-04-16T19:49:06.841Z,13.54
2023-04-16T19:51:06.829Z,13.5
2023-04-16T19:53:06.786Z,13.51
2023-04-16T19:55:06.758Z,13.49
2023-04-16T19:57:53.040Z,13.5
2023-04-16T19:59:54.642Z,13.46
2023-04-16T20:01:53.033Z,13.38
2023-04-16T20:03:53.067Z,13.33
2023-04-16T20:05:53.008Z,13.33
2023-04-16T20:07:53.010Z,13.38
2023-04-16T20:09:52.966Z,13.33
2023-04-16T20:13:07.211Z,13.24
2023-04-16T20:15:07.194Z,13.27
2023-04-16T20:17:07.214Z,13.24
2023-04-16T20:19:08.658Z,13.23
2023-04-16T20:21:07.232Z,13.26
2023-04-16T20:23:07.189Z,13.22
2023-04-16T20:25:07.165Z,13.2
2023-04-16T20:28:25.920Z,13.1
2023-04-16T20:30:25.883Z,13.05
2023-04-16T20:32:27.626Z,13.02
2023-04-16T20:34:25.889Z,12.88
2023-04-16T20:36:25.963Z,12.78
2023-04-16T20:38:25.869Z,12.85
2023-04-16T20:40:25.922Z,12.74
2023-04-16T20:43:56.669Z,12.73
2023-04-16T20:45:56.734Z,12.68
2023-04-16T20:47:56.724Z,12.62
2023-04-16T20:49:58.748Z,12.47
2023-04-16T20:51:56.738Z,12.51
2023-04-16T20:53:56.963Z,12.47
2023-04-16T20:55:56.675Z,12.41
2023-04-16T20:58:32.600Z,12.34
2023-04-16T21:00:32.639Z,12.36
2023-04-16T21:02:32.746Z,12.36
2023-04-16T21:04:32.739Z,12.33
2023-04-16T21:06:32.588Z,12.29
2023-04-16T21:08:32.655Z,12.29
2023-04-16T21:10:32.561Z,12.27
2023-04-16T21:14:00.014Z,12.27
2023-04-16T21:16:00.066Z,12.27
2023-04-16T21:18:00.058Z,12.26
2023-04-16T21:19:59.993Z,12.16
2023-04-16T21:22:00.049Z,12.04
2023-04-16T21:24:00.228Z,12.02
2023-04-16T21:25:59.986Z,11.99
2023-04-16T21:28:44.981Z,11.96
2023-04-16T21:30:44.990Z,11.85
2023-04-16T21:32:44.984Z,11.91
2023-04-16T21:34:44.967Z,11.93
2023-04-16T21:36:44.971Z,11.97
2023-04-16T21:38:44.997Z,11.88
2023-04-16T21:40:45.057Z,11.85
2023-04-16T21:44:10.628Z,11.84
2023-04-16T21:46:10.711Z,11.79
2023-04-16T21:48:10.596Z,11.75
2023-04-16T21:50:10.613Z,11.78
2023-04-16T21:52:10.647Z,11.8
2023-04-16T21:54:10.593Z,11.8
2023-04-16T21:56:10.656Z,11.75
2023-04-16T21:59:18.786Z,11.48
2023-04-16T22:01:18.835Z,11.48
2023-04-16T22:03:18.861Z,11.39
2023-04-16T22:05:18.776Z,11.43
2023-04-16T22:07:18.825Z,11.44
2023-04-16T22:09:19.047Z,11.57
2023-04-16T22:11:19.112Z,11.62
2023-04-16T22:14:05.199Z,11.52
2023-04-16T22:16:05.281Z,11.59
2023-04-16T22:18:05.208Z,11.56
2023-04-16T22:20:05.238Z,11.6
2023-04-16T22:22:05.222Z,11.56
2023-04-16T22:24:05.170Z,11.48
2023-04-16T22:26:05.191Z,11.47
2023-04-16T22:28:05.259Z,11.55
2023-04-16T22:29:56.735Z,11.53
2023-04-16T22:31:56.806Z,11.61
2023-04-16T22:33:56.766Z,11.57
2023-04-16T22:35:56.712Z,11.53
2023-04-16T22:37:56.774Z,11.57
2023-04-16T22:39:56.768Z,11.47
2023-04-16T22:41:56.776Z,11.43
2023-04-16T22:44:34.218Z,11.48
2023-04-16T22:46:34.252Z,11.49
2023-04-16T22:48:34.136Z,11.5
2023-04-16T22:50:34.114Z,11.48
2023-04-16T22:52:34.189Z,11.44
2023-04-16T22:54:34.258Z,11.43
2023-04-16T22:56:34.174Z,11.41
2023-04-16T23:00:19.669Z,11.46
2023-04-16T23:02:19.642Z,11.48
2023-04-16T23:04:19.712Z,11.44
2023-04-16T23:06:19.594Z,11.31
2023-04-16T23:08:19.589Z,11.28
2023-04-16T23:10:19.631Z,11.48
2023-04-16T23:12:19.619Z,11.52
2023-04-16T23:15:33.772Z,11.49
2023-04-16T23:17:34.091Z,11.44
2023-04-16T23:19:33.705Z,11.44
2023-04-16T23:21:34.700Z,11.53
2023-04-16T23:23:33.730Z,11.57
2023-04-16T23:25:33.670Z,11.52
2023-04-16T23:27:33.711Z,11.5
2023-04-16T23:30:11.744Z,11.53
2023-04-16T23:32:11.808Z,11.57
2023-04-16T23:34:11.730Z,11.53
2023-04-16T23:36:12.490Z,11.46
2023-04-16T23:38:11.729Z,11.29
2023-04-16T23:40:11.765Z,11.42
2023-04-16T23:42:11.762Z,11.43
2023-04-16T23:45:32.986Z,11.46
2023-04-16T23:47:33.059Z,11.56
2023-04-16T23:49:32.946Z,11.43
2023-04-16T23:51:32.947Z,11.37
2023-04-16T23:53:32.980Z,11.43
2023-04-16T23:55:32.927Z,11.5
2023-04-16T23:57:32.934Z,11.5
